Time;durP1;ratioP1;P1;durP2;ratioP2;P2;SDS_P1;SDS_P2;PMS_P1;PMS_P2;Temp;Humidity;BMP_temperature;BMP_pressure;BME280_temperature;BME280_humidity;BME280_pressure;Samples;Min_cycle;Max_cycle;Signal;HPM_P1;HPM_P2
2023/08/25 00:02:08;;;;;;;;;;;20.20;99.90;;;;;;5136655;27;19911;-44
2023/08/25 00:04:34;;;;;;;;;;;20.20;99.90;;;;;;5137699;27;20378;-41
2023/08/25 00:06:59;;;;;;;;;;;20.10;99.90;;;;;;5143327;27;19919;-40
2023/08/25 00:09:24;;;;;;;;;;;20.20;99.90;;;;;;5135328;27;19926;-43
2023/08/25 00:11:50;;;;;;;;;;;20.10;99.90;;;;;;5139981;27;19921;-40
2023/08/25 00:14:16;;;;;;;;;;;20.20;99.90;;;;;;5146495;27;19912;-41
2023/08/25 00:16:41;;;;;;;;;;;20.10;99.90;;;;;;5143451;27;20374;-42
2023/08/25 00:19:07;;;;;;;;;;;20.10;99.90;;;;;;5141572;27;19912;-41
2023/08/25 00:21:32;;;;;;;;;;;20.10;99.90;;;;;;5137554;27;19994;-40
2023/08/25 00:23:58;;;;;;;;;;;20.10;99.90;;;;;;5155607;27;20380;-40
2023/08/25 00:26:23;;;;;;;;;;;20.10;99.90;;;;;;5146509;27;19911;-41
2023/08/25 00:28:49;;;;;;;;;;;20.10;99.90;;;;;;5147682;27;19911;-39
2023/08/25 00:31:14;;;;;;;;;;;20.10;99.90;;;;;;5137081;27;19993;-41
2023/08/25 00:34:06;;;;;;;;;;;20.10;99.90;;;;;;5152663;27;19919;-41
2023/08/25 00:36:32;;;;;;;;;;;20.10;99.90;;;;;;5150454;27;19929;-42
2023/08/25 00:38:57;;;;;;;;;;;20.10;99.90;;;;;;5138225;27;19911;-41
2023/08/25 00:41:22;;;;;;;;;;;20.10;99.90;;;;;;5151917;27;20021;-40
2023/08/25 00:43:48;;;;;;;;;;;20.10;99.90;;;;;;5139277;27;20104;-40
2023/08/25 00:46:14;;;;;;;;;;;20.10;99.90;;;;;;5137300;27;19927;-42
2023/08/25 00:48:40;;;;;;;;;;;20.00;99.90;;;;;;5149972;27;20425;-42
2023/08/25 00:51:05;;;;;;;;;;;20.00;99.90;;;;;;5137302;27;19956;-42
2023/08/25 00:53:32;;;;;;;;;;;20.00;99.90;;;;;;5140763;27;19911;-40
2023/08/25 00:55:58;;;;;;;;;;;20.00;99.90;;;;;;5136427;27;19993;-41
2023/08/25 00:58:24;;;;;;;;;;;20.00;99.90;;;;;;5148041;27;20486;-42
2023/08/25 01:00:50;;;;;;;;;;;20.00;99.90;;;;;;5152731;27;19911;-40
2023/08/25 01:03:16;;;;;;;;;;;20.00;99.90;;;;;;5146490;27;20309;-42
2023/08/25 01:05:41;;;;;;;;;;;20.10;99.90;;;;;;5149236;27;19919;-41
2023/08/25 01:08:07;;;;;;;;;;;20.10;99.90;;;;;;5146737;27;19919;-43
2023/08/25 01:10:45;;;;;;;;;;;20.10;99.90;;;;;;5140424;27;19956;-41
2023/08/25 01:13:16;;;;;;;;;;;20.10;99.90;;;;;;5146618;27;20392;-42
2023/08/25 01:15:42;;;;;;;;;;;20.10;99.90;;;;;;5141821;27;20270;-42
2023/08/25 01:18:08;;;;;;;;;;;20.10;99.90;;;;;;5142262;27;19908;-41
2023/08/25 01:20:34;;;;;;;;;;;20.20;99.90;;;;;;5136799;27;19915;-40
2023/08/25 01:23:07;;;;;;;;;;;20.20;99.90;;;;;;5156868;27;20421;-42
2023/08/25 01:25:32;;;;;;;;;;;20.20;99.90;;;;;;5156848;27;19911;-41
2023/08/25 01:27:59;;;;;;;;;;;20.10;99.90;;;;;;5151462;27;19919;-41
2023/08/25 01:30:26;;;;;;;;;;;20.20;99.90;;;;;;5148460;27;19907;-41
2023/08/25 01:32:52;;;;;;;;;;;20.10;99.90;;;;;;5156773;27;20010;-42
2023/08/25 01:35:19;;;;;;;;;;;20.10;99.90;;;;;;5136827;27;20084;-42
2023/08/25 01:37:57;;;;;;;;;;;20.20;99.90;;;;;;5135776;27;19939;-42
2023/08/25 01:40:30;;;;;;;;;;;20.10;99.90;;;;;;5136020;27;19912;-42
2023/08/25 01:42:56;;;;;;;;;;;20.20;99.90;;;;;;5135756;27;19949;-40
2023/08/25 01:45:22;;;;;;;;;;;20.20;99.90;;;;;;5136496;27;19930;-42
2023/08/25 01:47:49;;;;;;;;;;;20.10;99.90;;;;;;5140662;27;19911;-41
2023/08/25 01:50:15;;;;;;;;;;;20.10;99.90;;;;;;5135326;27;20000;-41
2023/08/25 01:52:40;;;;;;;;;;;20.10;99.90;;;;;;5135193;27;19969;-42
2023/08/25 01:55:07;;;;;;;;;;;20.10;99.90;;;;;;5134716;27;19911;-40
2023/08/25 01:57:33;;;;;;;;;;;20.10;99.90;;;;;;5141998;27;19915;-45
2023/08/25 01:59:58;;;;;;;;;;;20.10;99.90;;;;;;5136010;27;19918;-41
2023/08/25 02:02:24;;;;;;;;;;;20.10;99.90;;;;;;5134962;27;19911;-41
2023/08/25 02:04:49;;;;;;;;;;;20.10;99.90;;;;;;5144552;27;19911;-41
2023/08/25 02:07:15;;;;;;;;;;;20.00;99.90;;;;;;5138837;27;19911;-41
2023/08/25 02:09:41;;;;;;;;;;;20.10;99.90;;;;;;5148486;27;19946;-40
2023/08/25 02:12:06;;;;;;;;;;;20.00;99.90;;;;;;5137617;27;19957;-41
2023/08/25 02:14:32;;;;;;;;;;;20.00;99.90;;;;;;5152348;27;19915;-40
2023/08/25 02:16:57;;;;;;;;;;;20.00;99.90;;;;;;5136757;27;19915;-40
2023/08/25 02:19:23;;;;;;;;;;;19.90;99.90;;;;;;5142146;27;19972;-43
2023/08/25 02:21:48;;;;;;;;;;;19.90;99.90;;;;;;5134610;27;19987;-42
2023/08/25 02:24:14;;;;;;;;;;;19.90;99.90;;;;;;5143600;27;19919;-41
2023/08/25 02:26:39;;;;;;;;;;;19.90;99.90;;;;;;5153258;27;19911;-42
2023/08/25 02:29:05;;;;;;;;;;;19.80;99.90;;;;;;5147845;27;19955;-44
2023/08/25 02:31:31;;;;;;;;;;;19.90;99.90;;;;;;5134414;27;20357;-41
2023/08/25 02:33:56;;;;;;;;;;;19.80;99.90;;;;;;5139178;27;20384;-42
2023/08/25 02:36:22;;;;;;;;;;;19.80;99.90;;;;;;5153236;27;19922;-40
2023/08/25 02:38:47;;;;;;;;;;;19.80;99.90;;;;;;5148048;27;19919;-43
2023/08/25 02:41:13;;;;;;;;;;;19.80;99.90;;;;;;5135042;27;20051;-41
2023/08/25 02:43:38;;;;;;;;;;;19.80;99.90;;;;;;5135730;27;19942;-41
2023/08/25 02:46:03;;;;;;;;;;;19.80;99.90;;;;;;5150374;27;19919;-42
2023/08/25 02:48:29;;;;;;;;;;;19.70;99.90;;;;;;5146146;27;19919;-42
2023/08/25 02:50:54;;;;;;;;;;;19.80;99.90;;;;;;5135275;27;20002;-42
2023/08/25 02:53:20;;;;;;;;;;;19.80;99.90;;;;;;5135236;27;19912;-41
2023/08/25 02:55:46;;;;;;;;;;;19.80;99.90;;;;;;5135784;27;19972;-42
2023/08/25 02:58:11;;;;;;;;;;;19.70;99.90;;;;;;5135176;27;19912;-41
2023/08/25 03:00:38;;;;;;;;;;;19.70;99.90;;;;;;5139841;27;19911;-40
2023/08/25 03:03:03;;;;;;;;;;;19.70;99.90;;;;;;5141492;27;20006;-42
2023/08/25 03:05:29;;;;;;;;;;;19.70;99.90;;;;;;5145455;27;20003;-41
2023/08/25 03:07:54;;;;;;;;;;;19.70;99.90;;;;;;5142070;27;19911;-42
2023/08/25 03:10:20;;;;;;;;;;;19.70;99.90;;;;;;5135645;27;20358;-41
2023/08/25 03:12:45;;;;;;;;;;;19.70;99.90;;;;;;5152461;27;19918;-41
2023/08/25 03:15:11;;;;;;;;;;;19.70;99.90;;;;;;5146160;27;19911;-42
2023/08/25 03:17:36;;;;;;;;;;;19.70;99.90;;;;;;5148550;27;19907;-40
2023/08/25 03:20:02;;;;;;;;;;;19.60;99.90;;;;;;5153637;27;20010;-41
2023/08/25 03:22:28;;;;;;;;;;;19.60;99.90;;;;;;5133760;27;19907;-41
2023/08/25 03:24:54;;;;;;;;;;;19.60;99.90;;;;;;5133924;27;19907;-41
2023/08/25 03:27:19;;;;;;;;;;;19.60;99.90;;;;;;5133966;27;19915;-42
2023/08/25 03:29:45;;;;;;;;;;;19.60;99.90;;;;;;5133770;27;19912;-41
2023/08/25 03:32:10;;;;;;;;;;;19.60;99.90;;;;;;5134382;27;20386;-42
2023/08/25 03:34:36;;;;;;;;;;;19.60;99.90;;;;;;5154390;27;20258;-41
2023/08/25 03:37:03;;;;;;;;;;;19.60;99.90;;;;;;5154378;27;19907;-41
2023/08/25 03:39:28;;;;;;;;;;;19.60;99.90;;;;;;5154382;27;19927;-41
2023/08/25 03:41:54;;;;;;;;;;;19.60;99.90;;;;;;5154385;27;19914;-42
2023/08/25 03:44:19;;;;;;;;;;;19.60;99.90;;;;;;5154147;27;19919;-42
2023/08/25 03:46:45;;;;;;;;;;;19.60;99.90;;;;;;5141813;27;20020;-41
2023/08/25 03:49:11;;;;;;;;;;;19.50;99.90;;;;;;5134020;27;19911;-41
2023/08/25 03:51:36;;;;;;;;;;;19.50;99.90;;;;;;5133648;27;19911;-40
2023/08/25 03:54:02;;;;;;;;;;;19.50;99.90;;;;;;5135881;27;20293;-41
2023/08/25 03:56:27;;;;;;;;;;;19.40;99.90;;;;;;5148970;27;19964;-42
2023/08/25 03:58:53;;;;;;;;;;;19.40;99.90;;;;;;5156290;27;19911;-41
2023/08/25 04:01:18;;;;;;;;;;;19.40;99.90;;;;;;5146440;27;20457;-40
2023/08/25 04:03:44;;;;;;;;;;;19.40;99.90;;;;;;5155974;27;20377;-42
2023/08/25 04:06:09;;;;;;;;;;;19.30;99.90;;;;;;5152748;27;19915;-40
2023/08/25 04:08:35;;;;;;;;;;;19.30;99.90;;;;;;5155829;27;20391;-41
2023/08/25 04:11:00;;;;;;;;;;;19.30;99.90;;;;;;5145787;27;19918;-40
2023/08/25 04:13:26;;;;;;;;;;;19.40;99.90;;;;;;5137142;27;19912;-41
2023/08/25 04:15:58;;;;;;;;;;;19.40;99.90;;;;;;5149749;27;19919;-40
2023/08/25 04:18:24;;;;;;;;;;;19.40;99.90;;;;;;5151901;27;20060;-40
2023/08/25 04:20:50;;;;;;;;;;;19.50;99.90;;;;;;5140819;27;19923;-41
2023/08/25 04:23:16;;;;;;;;;;;19.50;99.90;;;;;;5136911;27;20372;-41
2023/08/25 04:25:41;;;;;;;;;;;19.50;99.90;;;;;;5141241;27;20373;-41
2023/08/25 04:28:07;;;;;;;;;;;19.50;99.90;;;;;;5152924;27;19918;-43
2023/08/25 04:30:32;;;;;;;;;;;19.50;99.90;;;;;;5144116;27;19968;-40
2023/08/25 04:32:58;;;;;;;;;;;19.50;99.90;;;;;;5138330;27;19911;-42
2023/08/25 04:35:23;;;;;;;;;;;19.60;99.90;;;;;;5136679;27;20357;-42
2023/08/25 04:37:50;;;;;;;;;;;19.60;99.90;;;;;;5146149;27;19914;-40
2023/08/25 04:40:19;;;;;;;;;;;19.60;99.90;;;;;;5155380;27;19920;-44
2023/08/25 04:42:45;;;;;;;;;;;19.60;99.90;;;;;;5140080;27;20030;-40
2023/08/25 04:45:11;;;;;;;;;;;19.60;99.90;;;;;;5155051;27;20420;-40
2023/08/25 04:47:37;;;;;;;;;;;19.50;99.90;;;;;;5152153;27;19912;-41
2023/08/25 04:50:03;;;;;;;;;;;19.60;99.90;;;;;;5154623;27;20002;-39
2023/08/25 04:52:33;;;;;;;;;;;19.50;99.90;;;;;;5136726;27;19918;-41
2023/08/25 04:54:58;;;;;;;;;;;19.50;99.90;;;;;;5153937;27;19919;-42
2023/08/25 04:57:24;;;;;;;;;;;19.50;99.90;;;;;;5154794;27;19915;-42
2023/08/25 04:59:49;;;;;;;;;;;19.60;99.90;;;;;;5152711;27;19934;-40
2023/08/25 05:02:17;;;;;;;;;;;19.50;99.90;;;;;;5148032;27;19911;-41
2023/08/25 05:04:42;;;;;;;;;;;19.50;99.90;;;;;;5145114;27;19915;-41
2023/08/25 05:07:08;;;;;;;;;;;19.50;99.90;;;;;;5138895;27;19918;-40
2023/08/25 05:09:33;;;;;;;;;;;19.50;99.90;;;;;;5152115;27;19963;-41
2023/08/25 05:11:59;;;;;;;;;;;19.50;99.90;;;;;;5140431;27;19964;-44
2023/08/25 05:14:24;;;;;;;;;;;19.50;99.90;;;;;;5137984;27;19911;-42
2023/08/25 05:16:50;;;;;;;;;;;19.50;99.90;;;;;;5148735;27;19994;-41
2023/08/25 05:19:15;;;;;;;;;;;19.50;99.90;;;;;;5136077;27;20281;-41
2023/08/25 05:21:41;;;;;;;;;;;19.50;99.90;;;;;;5145879;27;19914;-44
2023/08/25 05:24:25;;;;;;;;;;;19.50;99.90;;;;;;5156845;27;19922;-42
2023/08/25 05:26:52;;;;;;;;;;;19.60;99.90;;;;;;5156821;27;19994;-40
2023/08/25 05:29:18;;;;;;;;;;;19.50;99.90;;;;;;5156779;27;19907;-40
2023/08/25 05:31:43;;;;;;;;;;;19.50;99.90;;;;;;5156783;27;19915;-40
2023/08/25 05:34:09;;;;;;;;;;;19.50;99.90;;;;;;5144116;27;19908;-42
2023/08/25 05:36:34;;;;;;;;;;;19.60;99.90;;;;;;5135810;27;20278;-41
2023/08/25 05:39:01;;;;;;;;;;;19.60;99.90;;;;;;5135957;27;19913;-40
2023/08/25 05:41:26;;;;;;;;;;;19.60;99.90;;;;;;5135813;27;20358;-42
2023/08/25 05:43:52;;;;;;;;;;;19.60;99.90;;;;;;5135507;27;19916;-42
2023/08/25 05:46:17;;;;;;;;;;;19.70;99.90;;;;;;5135685;27;19914;-44
2023/08/25 05:48:43;;;;;;;;;;;19.70;99.90;;;;;;5140478;27;19922;-40
2023/08/25 05:51:08;;;;;;;;;;;19.70;99.90;;;;;;5146883;27;19965;-40
2023/08/25 05:53:34;;;;;;;;;;;19.70;99.90;;;;;;5140804;27;20281;-40
2023/08/25 05:55:59;;;;;;;;;;;19.70;99.90;;;;;;5150385;27;19911;-40
2023/08/25 05:58:25;;;;;;;;;;;19.70;99.90;;;;;;5153478;27;19911;-40
2023/08/25 06:00:50;;;;;;;;;;;19.70;99.90;;;;;;5151224;27;19926;-41
2023/08/25 06:03:16;;;;;;;;;;;19.80;99.90;;;;;;5140077;27;19919;-41
2023/08/25 06:05:42;;;;;;;;;;;19.80;99.90;;;;;;5142586;27;19968;-40
2023/08/25 06:08:08;;;;;;;;;;;19.90;99.90;;;;;;5144152;27;20518;-43
2023/08/25 06:10:35;;;;;;;;;;;19.90;99.90;;;;;;5144746;27;20314;-41
2023/08/25 06:13:00;;;;;;;;;;;19.90;99.90;;;;;;5146607;27;19907;-40
2023/08/25 06:15:26;;;;;;;;;;;19.90;99.90;;;;;;5134332;27;19907;-42
2023/08/25 06:17:51;;;;;;;;;;;19.90;99.90;;;;;;5148640;27;20440;-43
2023/08/25 06:20:17;;;;;;;;;;;19.90;99.90;;;;;;5134649;27;20254;-43
2023/08/25 06:22:42;;;;;;;;;;;19.90;99.90;;;;;;5134537;27;20005;-41
2023/08/25 06:25:08;;;;;;;;;;;20.00;99.90;;;;;;5135003;27;19999;-40
2023/08/25 06:27:35;;;;;;;;;;;20.00;99.90;;;;;;5151611;27;19996;-40
2023/08/25 06:30:02;;;;;;;;;;;20.10;99.90;;;;;;5136382;27;20009;-40
2023/08/25 06:32:28;;;;;;;;;;;20.10;99.90;;;;;;5147373;27;19918;-41
2023/08/25 06:34:53;;;;;;;;;;;20.20;99.90;;;;;;5143401;27;20002;-40
2023/08/25 06:37:19;;;;;;;;;;;20.30;99.90;;;;;;5137325;27;20422;-45
2023/08/25 06:39:46;;;;;;;;;;;20.40;99.90;;;;;;5131578;27;19915;-41
2023/08/25 06:42:11;;;;;;;;;;;20.40;99.90;;;;;;5138597;27;19956;-43
2023/08/25 06:44:37;;;;;;;;;;;20.40;99.90;;;;;;5133811;27;19923;-40
2023/08/25 06:47:03;;;;;;;;;;;20.50;99.90;;;;;;5135568;27;19968;-42
2023/08/25 06:49:28;;;;;;;;;;;20.70;99.90;;;;;;5131713;27;19911;-40
2023/08/25 06:51:54;;;;;;;;;;;20.70;99.90;;;;;;5143773;27;19911;-42
2023/08/25 06:54:21;;;;;;;;;;;20.80;99.90;;;;;;5152875;27;19918;-42
2023/08/25 06:56:47;;;;;;;;;;;20.90;99.90;;;;;;5143631;27;19939;-41
2023/08/25 06:59:14;;;;;;;;;;;20.90;99.90;;;;;;5134096;27;20377;-42
2023/08/25 07:01:39;;;;;;;;;;;21.10;99.90;;;;;;5140648;27;19980;-43
2023/08/25 07:04:05;;;;;;;;;;;21.10;99.90;;;;;;5142999;27;20313;-45
2023/08/25 07:06:30;;;;;;;;;;;21.20;99.90;;;;;;5141849;27;19926;-42
2023/08/25 07:08:56;;;;;;;;;;;21.30;99.90;;;;;;5131396;27;19975;-42
2023/08/25 07:11:22;;;;;;;;;;;21.30;99.90;;;;;;5138295;27;19961;-42
2023/08/25 07:13:48;;;;;;;;;;;21.30;99.90;;;;;;5152420;27;20268;-43
2023/08/25 07:16:14;;;;;;;;;;;21.40;99.90;;;;;;5142009;27;19938;-41
2023/08/25 07:18:39;;;;;;;;;;;21.50;99.90;;;;;;5151726;27;20278;-41
2023/08/25 07:21:05;;;;;;;;;;;21.50;99.90;;;;;;5150725;27;19907;-41
2023/08/25 07:23:30;;;;;;;;;;;21.40;99.90;;;;;;5133880;27;19922;-41
2023/08/25 07:25:56;;;;;;;;;;;21.40;99.90;;;;;;5133840;27;19961;-41
2023/08/25 07:28:21;;;;;;;;;;;21.50;99.90;;;;;;5133686;27;19908;-40
2023/08/25 07:30:46;;;;;;;;;;;21.50;99.90;;;;;;5133819;27;20006;-41
2023/08/25 07:33:12;;;;;;;;;;;21.50;99.90;;;;;;5137247;27;19914;-42
2023/08/25 07:35:38;;;;;;;;;;;21.60;99.90;;;;;;5154484;27;20386;-42
2023/08/25 07:38:03;;;;;;;;;;;21.60;99.90;;;;;;5145565;27;20428;-40
2023/08/25 07:40:29;;;;;;;;;;;21.60;99.90;;;;;;5144764;27;19915;-45
2023/08/25 07:42:59;;;;;;;;;;;21.70;99.90;;;;;;5134878;27;19919;-45
2023/08/25 07:45:25;;;;;;;;;;;21.70;99.90;;;;;;5133421;27;20401;-41
2023/08/25 07:47:50;;;;;;;;;;;21.70;99.90;;;;;;5152446;27;20071;-42
2023/08/25 07:50:16;;;;;;;;;;;21.70;99.90;;;;;;5154377;27;19915;-42
2023/08/25 07:52:41;;;;;;;;;;;21.80;99.90;;;;;;5154299;27;19907;-41
2023/08/25 07:55:07;;;;;;;;;;;21.80;99.90;;;;;;5154468;27;19976;-41
2023/08/25 07:57:32;;;;;;;;;;;21.80;99.90;;;;;;5154063;27;19998;-42
2023/08/25 07:59:58;;;;;;;;;;;21.80;99.90;;;;;;5154467;27;19907;-42
2023/08/25 08:02:24;;;;;;;;;;;21.80;99.90;;;;;;5144049;27;20360;-40
2023/08/25 08:04:51;;;;;;;;;;;21.90;99.90;;;;;;5142508;27;19950;-40
2023/08/25 08:07:17;;;;;;;;;;;21.80;99.90;;;;;;5138606;27;20302;-41
2023/08/25 08:09:42;;;;;;;;;;;21.90;99.90;;;;;;5135429;27;19918;-40
2023/08/25 08:12:08;;;;;;;;;;;21.90;99.90;;;;;;5133494;28;19908;-41
2023/08/25 08:14:35;;;;;;;;;;;21.90;99.90;;;;;;5150306;27;19915;-42
2023/08/25 08:17:02;;;;;;;;;;;22.00;99.90;;;;;;5112988;28;19912;-41
2023/08/25 08:19:28;;;;;;;;;;;22.00;99.90;;;;;;5124587;27;19946;-42
2023/08/25 08:21:53;;;;;;;;;;;22.00;99.90;;;;;;5133499;28;19915;-41
2023/08/25 08:24:19;;;;;;;;;;;22.00;99.90;;;;;;5142337;27;20349;-42
2023/08/25 08:26:44;;;;;;;;;;;22.00;99.90;;;;;;5152132;27;20656;-41
2023/08/25 08:29:10;;;;;;;;;;;22.00;99.90;;;;;;5145404;27;20059;-42
2023/08/25 08:31:35;;;;;;;;;;;22.00;99.90;;;;;;5133283;28;19964;-43
2023/08/25 08:34:01;;;;;;;;;;;22.00;99.90;;;;;;5137722;27;19907;-40
2023/08/25 08:36:26;;;;;;;;;;;22.00;99.90;;;;;;5148036;27;19911;-41
2023/08/25 08:38:52;;;;;;;;;;;22.00;99.90;;;;;;5131731;27;19911;-41
2023/08/25 08:41:18;;;;;;;;;;;22.00;99.90;;;;;;5136940;27;19918;-40
2023/08/25 08:43:45;;;;;;;;;;;22.00;99.90;;;;;;5136842;27;19915;-41
2023/08/25 08:46:11;;;;;;;;;;;22.00;99.90;;;;;;5152264;27;19927;-42
2023/08/25 08:48:37;;;;;;;;;;;22.00;99.90;;;;;;5145862;27;20346;-42
2023/08/25 08:51:02;;;;;;;;;;;21.90;99.90;;;;;;5136766;27;19908;-42
2023/08/25 08:53:29;;;;;;;;;;;22.00;99.90;;;;;;5136795;27;19955;-41
2023/08/25 08:55:56;;;;;;;;;;;22.00;99.90;;;;;;5136719;27;19919;-40
2023/08/25 08:58:21;;;;;;;;;;;22.00;99.90;;;;;;5142961;27;20324;-42
2023/08/25 09:00:47;;;;;;;;;;;22.00;99.90;;;;;;5157221;27;20409;-41
2023/08/25 09:03:16;;;;;;;;;;;22.00;99.90;;;;;;5146028;27;19926;-42
2023/08/25 09:05:42;;;;;;;;;;;22.00;99.90;;;;;;5157225;27;19914;-43
2023/08/25 09:08:08;;;;;;;;;;;22.10;99.90;;;;;;5155295;27;19911;-42
2023/08/25 09:10:33;;;;;;;;;;;22.10;99.90;;;;;;5157105;27;20278;-42
2023/08/25 09:12:59;;;;;;;;;;;22.10;99.90;;;;;;5154955;27;19911;-45
2023/08/25 09:15:26;;;;;;;;;;;22.10;99.90;;;;;;5157405;27;19980;-42
2023/08/25 09:17:58;;;;;;;;;;;22.10;99.90;;;;;;5147621;27;20358;-40
2023/08/25 09:20:25;;;;;;;;;;;22.10;99.90;;;;;;5148169;27;20380;-40
2023/08/25 09:22:55;;;;;;;;;;;22.10;99.90;;;;;;5144961;27;19915;-41
2023/08/25 09:25:20;;;;;;;;;;;22.10;99.90;;;;;;5149145;27;20002;-42
2023/08/25 09:27:46;;;;;;;;;;;22.10;99.90;;;;;;5136092;27;19938;-43
2023/08/25 09:30:11;;;;;;;;;;;22.00;99.90;;;;;;5140594;27;19911;-44
2023/08/25 09:32:37;;;;;;;;;;;22.00;99.90;;;;;;5150154;27;19964;-41
2023/08/25 09:35:10;;;;;;;;;;;22.00;99.90;;;;;;5137630;27;20271;-42
2023/08/25 09:37:40;;;;;;;;;;;21.90;99.90;;;;;;5136479;27;20384;-41
2023/08/25 09:40:07;;;;;;;;;;;21.90;99.90;;;;;;5147128;27;20432;-41
2023/08/25 09:42:32;;;;;;;;;;;21.90;99.90;;;;;;5147911;27;20361;-41
2023/08/25 09:45:00;;;;;;;;;;;21.90;99.90;;;;;;5142633;27;19927;-40
2023/08/25 09:47:26;;;;;;;;;;;21.80;99.90;;;;;;5156483;27;19907;-41
2023/08/25 09:49:52;;;;;;;;;;;21.80;99.90;;;;;;5146817;27;19976;-42
2023/08/25 09:52:19;;;;;;;;;;;21.80;99.90;;;;;;5134425;27;19983;-41
2023/08/25 09:54:44;;;;;;;;;;;21.80;99.90;;;;;;5139405;27;19915;-41
2023/08/25 09:57:10;;;;;;;;;;;21.80;99.90;;;;;;5137630;27;19911;-41
2023/08/25 09:59:35;;;;;;;;;;;21.80;99.90;;;;;;5138249;27;19911;-40
2023/08/25 10:02:01;;;;;;;;;;;21.90;99.90;;;;;;5136401;27;19915;-43
2023/08/25 10:04:27;;;;;;;;;;;22.00;99.90;;;;;;5135282;27;19922;-41
2023/08/25 10:06:54;;;;;;;;;;;21.90;99.90;;;;;;5146851;27;19907;-41
2023/08/25 10:09:20;;;;;;;;;;;22.00;99.90;;;;;;5155962;27;20377;-43
2023/08/25 10:11:48;;;;;;;;;;;22.00;99.90;;;;;;5155975;27;20015;-40
2023/08/25 10:14:14;;;;;;;;;;;22.00;99.90;;;;;;5155874;27;20441;-41
2023/08/25 10:16:50;;;;;;;;;;;22.00;99.90;;;;;;5153373;27;19989;-41
2023/08/25 10:19:20;;;;;;;;;;;22.00;99.90;;;;;;5143512;27;19911;-43
2023/08/25 10:21:48;;;;;;;;;;;22.00;99.90;;;;;;5153700;27;19923;-42
2023/08/25 10:24:17;;;;;;;;;;;22.00;99.90;;;;;;5148229;27;19970;-41
2023/08/25 10:26:43;;;;;;;;;;;22.10;99.90;;;;;;5140198;27;19911;-41
2023/08/25 10:29:09;;;;;;;;;;;22.10;99.90;;;;;;5136169;27;19999;-41
2023/08/25 10:31:35;;;;;;;;;;;22.20;99.90;;;;;;5155498;27;19946;-40
2023/08/25 10:34:00;;;;;;;;;;;22.40;99.90;;;;;;5155468;27;20001;-41
2023/08/25 10:36:26;;;;;;;;;;;22.60;99.90;;;;;;5155549;27;20009;-42
2023/08/25 10:38:54;;;;;;;;;;;22.80;99.90;;;;;;5155385;27;19907;-43
2023/08/25 10:41:20;;;;;;;;;;;22.90;99.90;;;;;;5153822;27;19907;-42
2023/08/25 10:43:50;;;;;;;;;;;23.10;99.90;;;;;;5134618;27;19916;-42
2023/08/25 10:46:17;;;;;;;;;;;23.20;99.90;;;;;;5134086;27;19926;-42
2023/08/25 10:48:42;;;;;;;;;;;23.30;99.90;;;;;;5143225;27;19912;-41
2023/08/25 10:51:09;;;;;;;;;;;23.30;99.90;;;;;;5145602;27;19912;-40
2023/08/25 10:53:38;;;;;;;;;;;23.30;99.90;;;;;;5133969;27;19960;-42
2023/08/25 10:56:14;;;;;;;;;;;23.30;99.90;;;;;;5134502;27;19935;-42
2023/08/25 10:58:40;;;;;;;;;;;23.30;99.90;;;;;;5140026;27;19911;-41
2023/08/25 11:01:05;;;;;;;;;;;23.40;99.90;;;;;;5142187;27;19976;-42
2023/08/25 11:03:48;;;;;;;;;;;23.30;99.90;;;;;;5133568;27;19915;-40
2023/08/25 11:06:32;;;;;;;;;;;23.30;99.90;;;;;;5113771;28;19978;-45
2023/08/25 11:08:57;;;;;;;;;;;23.40;99.90;;;;;;5113721;28;20270;-43
2023/08/25 11:11:23;;;;;;;;;;;23.50;99.90;;;;;;5113821;28;19911;-41
2023/08/25 11:13:50;;;;;;;;;;;23.50;99.90;;;;;;5113560;28;20252;-41
2023/08/25 11:16:16;;;;;;;;;;;23.60;99.90;;;;;;5113609;28;19912;-43
2023/08/25 11:18:42;;;;;;;;;;;23.70;99.90;;;;;;5113532;28;19908;-41
2023/08/25 11:21:08;;;;;;;;;;;23.70;99.90;;;;;;5130760;27;19960;-41
2023/08/25 11:23:37;;;;;;;;;;;23.60;99.90;;;;;;5145929;27;19926;-42
2023/08/25 11:26:02;;;;;;;;;;;23.60;99.90;;;;;;5124461;27;19911;-42
2023/08/25 11:28:28;;;;;;;;;;;23.50;99.90;;;;;;5133800;27;20385;-42
2023/08/25 11:30:53;;;;;;;;;;;23.40;99.90;;;;;;5133886;27;19908;-41
2023/08/25 11:33:20;;;;;;;;;;;23.30;99.90;;;;;;5135914;27;19968;-41
2023/08/25 11:35:46;;;;;;;;;;;23.30;99.90;;;;;;5147348;27;19915;-41
2023/08/25 11:38:14;;;;;;;;;;;23.30;99.90;;;;;;5141145;27;19917;-41
2023/08/25 11:40:40;;;;;;;;;;;23.20;99.90;;;;;;5153330;27;20318;-41
2023/08/25 11:43:05;;;;;;;;;;;23.10;99.90;;;;;;5144602;27;20384;-40
2023/08/25 11:45:32;;;;;;;;;;;23.10;99.90;;;;;;5154192;27;19923;-41
2023/08/25 11:47:57;;;;;;;;;;;23.10;99.90;;;;;;5145652;27;19919;-41
2023/08/25 11:50:24;;;;;;;;;;;23.10;99.90;;;;;;5154036;27;19990;-41
2023/08/25 11:52:50;;;;;;;;;;;23.00;99.90;;;;;;5154227;27;19914;-40
2023/08/25 11:55:15;;;;;;;;;;;23.00;99.90;;;;;;5154375;27;20001;-40
2023/08/25 11:57:41;;;;;;;;;;;23.00;99.90;;;;;;5154221;27;20288;-42
2023/08/25 12:00:07;;;;;;;;;;;22.90;99.90;;;;;;5154366;27;19907;-41
2023/08/25 12:02:33;;;;;;;;;;;22.90;99.90;;;;;;5154158;27;20005;-41
2023/08/25 12:05:03;;;;;;;;;;;22.90;99.90;;;;;;5154277;27;19986;-42
2023/08/25 12:07:30;;;;;;;;;;;22.90;99.90;;;;;;5154157;27;19908;-42
2023/08/25 12:09:56;;;;;;;;;;;22.80;99.90;;;;;;5154196;27;20246;-44
2023/08/25 12:12:22;;;;;;;;;;;22.80;99.90;;;;;;5154279;27;19907;-41
2023/08/25 12:14:51;;;;;;;;;;;22.70;99.90;;;;;;5156069;27;20047;-40
2023/08/25 12:17:35;;;;;;;;;;;22.70;99.90;;;;;;5158335;27;19914;-41
2023/08/25 12:20:10;;;;;;;;;;;22.70;99.90;;;;;;5158597;27;20430;-41
2023/08/25 12:22:48;;;;;;;;;;;22.60;99.90;;;;;;5158050;27;19908;-40
2023/08/25 12:25:14;;;;;;;;;;;22.60;99.90;;;;;;5158374;27;19915;-41
2023/08/25 12:27:39;;;;;;;;;;;22.60;99.90;;;;;;5157978;27;20384;-42
2023/08/25 12:30:05;;;;;;;;;;;22.60;99.90;;;;;;5158227;27;19913;-40
2023/08/25 12:32:31;;;;;;;;;;;22.60;99.90;;;;;;5157857;27;19907;-41
2023/08/25 12:34:56;;;;;;;;;;;22.70;99.90;;;;;;5157940;27;19914;-40
2023/08/25 12:37:22;;;;;;;;;;;22.70;99.90;;;;;;5158097;27;19907;-41
2023/08/25 12:39:47;;;;;;;;;;;22.70;99.90;;;;;;5157677;27;19907;-43
2023/08/25 12:42:13;;;;;;;;;;;22.70;99.90;;;;;;5157819;27;19946;-42
2023/08/25 12:44:38;;;;;;;;;;;22.70;99.90;;;;;;5157295;27;19919;-43
2023/08/25 12:47:04;;;;;;;;;;;22.70;99.90;;;;;;5157565;27;19911;-42
2023/08/25 12:49:29;;;;;;;;;;;22.70;99.90;;;;;;5157567;27;20003;-41
2023/08/25 12:51:55;;;;;;;;;;;22.80;99.90;;;;;;5157416;27;19986;-41
2023/08/25 12:54:21;;;;;;;;;;;22.90;99.90;;;;;;5157514;27;19907;-41
2023/08/25 12:56:46;;;;;;;;;;;22.90;99.90;;;;;;5157406;27;20276;-41
2023/08/25 12:59:11;;;;;;;;;;;22.80;99.90;;;;;;5157469;27;19998;-42
2023/08/25 13:01:37;;;;;;;;;;;22.80;99.90;;;;;;5157300;27;19907;-42
2023/08/25 13:04:03;;;;;;;;;;;22.70;99.90;;;;;;5157361;27;19960;-42
2023/08/25 13:06:28;;;;;;;;;;;22.60;99.90;;;;;;5157248;27;20301;-43
2023/08/25 13:08:54;;;;;;;;;;;22.60;99.90;;;;;;5157155;27;19915;-42
2023/08/25 13:11:20;;;;;;;;;;;22.50;99.90;;;;;;5157275;27;19937;-41
2023/08/25 13:13:45;;;;;;;;;;;22.40;99.90;;;;;;5157110;27;20365;-41
2023/08/25 13:16:11;;;;;;;;;;;22.20;99.90;;;;;;5157040;27;19921;-41
2023/08/25 13:18:37;;;;;;;;;;;22.20;99.90;;;;;;5156987;27;19907;-42
2023/08/25 13:21:03;;;;;;;;;;;22.10;99.90;;;;;;5156959;27;19911;-42
2023/08/25 13:23:28;;;;;;;;;;;22.00;99.90;;;;;;5156803;27;19912;-42
2023/08/25 13:25:54;;;;;;;;;;;21.90;99.90;;;;;;5156708;27;19907;-41
2023/08/25 13:28:20;;;;;;;;;;;21.90;99.90;;;;;;5156880;27;20349;-40
2023/08/25 13:30:45;;;;;;;;;;;21.80;99.90;;;;;;5156759;27;19918;-43
2023/08/25 13:33:11;;;;;;;;;;;21.70;99.90;;;;;;5156845;27;20006;-42
2023/08/25 13:35:36;;;;;;;;;;;21.60;99.90;;;;;;5156975;27;19907;-42
2023/08/25 13:38:02;;;;;;;;;;;21.50;99.90;;;;;;5156823;27;19914;-42
2023/08/25 13:40:28;;;;;;;;;;;21.40;99.90;;;;;;5156608;27;20349;-42
2023/08/25 13:42:53;;;;;;;;;;;21.30;99.90;;;;;;5156424;27;20429;-40
2023/08/25 13:45:19;;;;;;;;;;;21.30;99.90;;;;;;5156285;27;20301;-41
2023/08/25 13:47:46;;;;;;;;;;;21.30;99.90;;;;;;5156511;27;20030;-42
2023/08/25 13:50:12;;;;;;;;;;;21.20;99.90;;;;;;5156628;27;20365;-44
2023/08/25 13:52:38;;;;;;;;;;;21.20;99.90;;;;;;5156310;27;19914;-40
2023/08/25 13:55:03;;;;;;;;;;;21.20;99.90;;;;;;5156410;27;19923;-44
2023/08/25 13:57:30;;;;;;;;;;;21.10;99.90;;;;;;5156209;27;19914;-41
2023/08/25 13:59:56;;;;;;;;;;;21.00;99.90;;;;;;5156129;27;19907;-41
2023/08/25 14:02:21;;;;;;;;;;;21.00;99.90;;;;;;5156260;27;19911;-42
2023/08/25 14:04:46;;;;;;;;;;;21.00;99.90;;;;;;5156027;27;19915;-40
2023/08/25 14:07:12;;;;;;;;;;;21.00;99.90;;;;;;5156101;27;19973;-42
2023/08/25 14:09:37;;;;;;;;;;;21.00;99.90;;;;;;5155985;27;19953;-42
2023/08/25 14:12:03;;;;;;;;;;;21.10;99.90;;;;;;5156037;27;20269;-41